Time;durP1;ratioP1;P1;durP2;ratioP2;P2;SDS_P1;SDS_P2;PMS_P1;PMS_P2;Temp;Humidity;BMP_temperature;BMP_pressure;BME280_temperature;BME280_humidity;BME280_pressure;Samples;Min_cycle;Max_cycle;Signal;HPM_P1;HPM_P2
2022/12/20 00:01:45;;;;;;;0.00;0.00;;;;;;;11.28;100.00;99209.56;5043854;28;20651;-76
2022/12/20 00:04:18;;;;;;;0.00;0.00;;;;;;;11.37;100.00;99208.88;5039677;28;20031;-76
2022/12/20 00:06:44;;;;;;;0.00;0.00;;;;;;;11.31;100.00;99208.97;5062120;28;20047;-75
2022/12/20 00:09:10;;;;;;;0.00;0.00;;;;;;;11.44;100.00;99233.94;5065923;28;20127;-75
2022/12/20 00:11:38;;;;;;;0.00;0.00;;;;;;;11.35;100.00;99196.31;5074562;28;20099;-76
2022/12/20 00:14:04;;;;;;;0.00;0.00;;;;;;;11.27;100.00;99191.53;5062485;28;20032;-77
2022/12/20 00:16:29;;;;;;;0.00;0.00;;;;;;;11.39;100.00;99217.59;5044368;28;20040;-76
2022/12/20 00:19:01;;;;;;;0.00;0.00;;;;;;;11.44;100.00;99212.03;5059242;28;20069;-76
2022/12/20 00:21:27;;;;;;;0.00;0.00;;;;;;;11.43;100.00;99224.09;5077724;28;20021;-77
2022/12/20 00:24:07;;;;;;;;;;;;;;;;;;;;;
2022/12/20 00:26:34;;;;;;;0.00;0.00;;;;;;;11.35;100.00;99199.03;5070911;28;20024;-76
2022/12/20 00:29:00;;;;;;;0.00;0.00;;;;;;;11.27;100.00;99197.00;5075655;28;20041;-76
2022/12/20 00:31:27;;;;;;;0.00;0.00;;;;;;;11.31;100.00;99208.16;5060261;28;20024;-76
2022/12/20 00:33:55;;;;;;;0.00;0.00;;;;;;;11.31;100.00;99194.47;5081652;28;20023;-76
2022/12/20 00:36:31;;;;;;;0.00;0.00;;;;;;;11.30;100.00;99196.41;5060868;28;20063;-76
2022/12/20 00:38:59;;;;;;;0.00;0.00;;;;;;;11.30;100.00;99196.41;5039624;28;20029;-78
2022/12/20 00:41:27;;;;;;;0.00;0.00;;;;;;;11.19;100.00;99175.81;5079689;28;20024;-78
2022/12/20 00:44:02;;;;;;;0.00;0.00;;;;;;;11.23;100.00;99179.56;5062039;28;20038;-77
2022/12/20 00:46:35;;;;;;;0.00;0.00;;;;;;;11.28;100.00;99208.75;5040192;28;20546;-76
2022/12/20 00:49:03;;;;;;;0.00;0.00;;;;;;;11.31;100.00;99202.69;5064282;28;20035;-77
2022/12/20 00:51:31;;;;;;;0.00;0.00;;;;;;;11.29;100.00;99172.09;5066966;28;20024;-76
2022/12/20 00:53:59;;;;;;;0.00;0.00;;;;;;;11.30;100.00;99201.88;5084743;28;20538;-77
2022/12/20 00:56:24;;;;;;;0.00;0.00;;;;;;;11.37;100.00;99186.97;5056916;28;20024;-77
2022/12/20 00:58:50;;;;;;;0.00;0.00;;;;;;;11.31;100.00;99172.56;5044075;28;20054;-76
2022/12/20 01:01:24;;;;;;;0.00;0.00;;;;;;;11.41;100.00;99182.53;5048961;28;20062;-77
2022/12/20 01:04:07;;;;;;;0.00;0.00;;;;;;;11.37;100.00;99208.88;5071314;28;20032;-77
2022/12/20 01:06:33;;;;;;;0.00;0.00;;;;;;;11.42;100.00;99171.28;5062582;28;20015;-78
2022/12/20 01:09:00;;;;;;;0.00;0.00;;;;;;;11.44;100.00;99181.94;5066600;28;20067;-77
2022/12/20 01:11:28;;;;;;;0.00;0.00;;;;;;;11.41;100.00;99168.84;5062553;28;20022;-76
2022/12/20 01:13:57;;;;;;;0.00;0.00;;;;;;;11.44;100.00;99174.53;5064989;28;20019;-76
2022/12/20 01:16:40;;;;;;;0.00;0.00;;;;;;;11.48;100.00;99172.00;5058092;28;20025;-77
2022/12/20 01:19:09;;;;;;;0.00;0.00;;;;;;;11.48;100.00;99166.53;5067969;28;20438;-76
2022/12/20 01:21:35;;;;;;;0.00;0.00;;;;;;;11.47;100.00;99156.69;5046325;28;20024;-75
2022/12/20 01:24:03;;;;;;;0.00;0.00;;;;;;;11.44;100.00;99135.41;5068879;28;20027;-76
2022/12/20 01:26:29;;;;;;;0.00;0.00;;;;;;;11.49;100.00;99160.75;5078452;28;20024;-76
2022/12/20 01:29:02;;;;;;;0.00;0.00;;;;;;;11.47;100.00;99156.69;5065383;28;20024;-75
2022/12/20 01:31:29;;;;;;;0.00;0.00;;;;;;;11.49;100.00;99182.66;5050261;28;20470;-76
2022/12/20 01:33:55;;;;;;;0.00;0.00;;;;;;;11.47;100.00;99138.31;5067350;28;20036;-76
2022/12/20 01:36:26;;;;;;;0.00;0.00;;;;;;;11.46;100.00;99155.06;5059592;28;20045;-76
2022/12/20 01:39:01;;;;;;;0.00;0.00;;;;;;;11.50;100.00;99134.19;5064321;28;20051;-76
2022/12/20 01:41:28;;;;;;;0.00;0.00;;;;;;;11.51;100.00;99144.03;5080402;28;20028;-76
2022/12/20 01:43:56;;;;;;;0.00;0.00;;;;;;;11.50;100.00;99156.06;5079700;28;20028;-76
2022/12/20 01:46:24;;;;;;;0.00;0.00;;;;;;;11.47;100.00;99121.91;5064891;28;20020;-75
2022/12/20 01:49:05;;;;;;;0.00;0.00;;;;;;;11.54;100.00;99129.72;5077767;28;20106;-76
2022/12/20 01:51:38;;;;;;;0.00;0.00;;;;;;;11.51;100.00;99113.91;5074632;28;20027;-76
2022/12/20 01:54:09;;;;;;;0.00;0.00;;;;;;;11.55;100.00;99114.09;5054202;28;20024;-75
2022/12/20 01:56:39;;;;;;;0.00;0.00;;;;;;;11.49;100.00;99100.53;5066301;28;20086;-76
2022/12/20 01:59:05;;;;;;;0.00;0.00;;;;;;;11.54;100.00;99116.03;5031066;28;20028;-76
2022/12/20 02:01:43;;;;;;;0.00;0.00;;;;;;;11.58;100.00;99103.38;5059388;28;20031;-76
2022/12/20 02:04:09;;;;;;;0.00;0.00;;;;;;;11.58;100.00;99121.69;5068465;28;20587;-75
2022/12/20 02:06:44;;;;;;;;;;;;;;;;;;;;;
2022/12/20 02:09:17;;;;;;;0.00;0.00;;;;;;;11.55;100.00;99103.97;5076401;28;20024;-77
2022/12/20 02:12:02;;;;;;;0.00;0.00;;;;;;;11.53;100.00;99106.19;5051047;28;20031;-77
2022/12/20 02:14:54;;;;;;;0.00;0.00;;;;;;;11.57;100.00;99107.22;5086082;28;20085;-77
2022/12/20 02:17:45;;;;;;;0.00;0.00;;;;;;;11.56;100.00;99099.31;5073543;28;20032;-76
2022/12/20 02:20:28;;;;;;;0.00;0.00;;;;;;;11.53;100.00;99111.66;5060984;28;20059;-77
2022/12/20 02:23:00;;;;;;;0.00;0.00;;;;;;;11.47;100.00;99085.50;5068243;28;20125;-77
2022/12/20 02:25:59;;;;;;;0.00;0.00;;;;;;;11.47;100.00;99110.16;5069365;28;20024;-77
2022/12/20 02:28:51;;;;;;;0.00;0.00;;;;;;;11.39;100.00;99100.72;5060159;28;20025;-77
2022/12/20 02:31:25;;;;;;;0.00;0.00;;;;;;;11.31;100.00;99083.06;5051053;28;20047;-78
2022/12/20 02:33:58;;;;;;;0.00;0.00;;;;;;;11.12;100.00;99063.19;5083905;28;20024;-78
2022/12/20 02:36:26;;;;;;;0.00;0.00;;;;;;;11.14;100.00;99061.78;5085743;28;20060;-76
2022/12/20 02:38:51;;;;;;;0.00;0.00;;;;;;;11.12;100.00;99083.16;5051223;28;20115;-76
2022/12/20 02:41:42;;;;;;;0.00;0.00;;;;;;;11.07;100.00;99060.56;5053190;28;20481;-77
2022/12/20 02:46:59;;;;;;;0.00;0.00;;;;;;;10.99;100.00;99049.22;5085775;28;20069;-77
2022/12/20 02:49:33;;;;;;;0.00;0.00;;;;;;;10.99;100.00;99043.75;5070763;28;20135;-78
2022/12/20 02:52:02;;;;;;;0.00;0.00;;;;;;;11.00;100.00;99028.94;5066814;28;20470;-78
2022/12/20 02:54:30;;;;;;;0.00;0.00;;;;;;;11.04;100.00;99061.16;5088305;28;20390;-80
2022/12/20 02:57:07;;;;;;;0.00;0.00;;;;;;;11.03;100.00;99037.69;5034981;28;20514;-77
2022/12/20 02:59:54;;;;;;;0.00;0.00;;;;;;;11.02;100.00;99049.72;5070966;28;20024;-77
2022/12/20 03:02:20;;;;;;;0.00;0.00;;;;;;;10.99;100.00;99034.72;5066852;28;20024;-76
2022/12/20 03:04:55;;;;;;;0.00;0.00;;;;;;;11.05;100.00;99043.66;5046630;28;20500;-76
2022/12/20 03:07:21;;;;;;;0.00;0.00;;;;;;;11.04;100.00;99042.00;5064691;28;20068;-78
2022/12/20 03:09:46;;;;;;;0.00;0.00;;;;;;;11.02;100.00;99025.91;5074106;28;20012;-77
2022/12/20 03:12:15;;;;;;;0.00;0.00;;;;;;;10.99;100.00;99021.88;5056270;28;20020;-77
2022/12/20 03:14:41;;;;;;;0.00;0.00;;;;;;;10.99;100.00;99023.78;5062545;28;20026;-77
2022/12/20 03:17:09;;;;;;;0.00;0.00;;;;;;;11.02;100.00;99019.63;5035068;28;20389;-77
2022/12/20 03:19:38;;;;;;;0.00;0.00;;;;;;;11.07;100.00;99049.59;5053066;28;20050;-78
2022/12/20 03:22:03;;;;;;;0.00;0.00;;;;;;;11.08;100.00;99023.88;5064171;28;20083;-77
2022/12/20 03:24:29;;;;;;;0.00;0.00;;;;;;;11.06;100.00;99020.66;5051390;28;20032;-78
2022/12/20 03:26:57;;;;;;;0.00;0.00;;;;;;;11.05;100.00;99017.09;5053086;28;20043;-78
2022/12/20 03:29:22;;;;;;;0.00;0.00;;;;;;;11.04;100.00;99017.41;5053752;28;20022;-78
2022/12/20 03:31:50;;;;;;;0.00;0.00;;;;;;;11.07;100.00;99016.78;5057866;28;20378;-79
2022/12/20 03:34:16;;;;;;;0.00;0.00;;;;;;;11.10;100.00;99005.25;5064328;28;20028;-77
2022/12/20 03:36:41;;;;;;;0.00;0.00;;;;;;;11.07;100.00;99025.81;5059714;28;20048;-77
2022/12/20 03:39:16;;;;;;;0.00;0.00;;;;;;;11.09;100.00;99014.56;5074470;28;20039;-76
2022/12/20 03:41:52;;;;;;;0.00;0.00;;;;;;;11.13;100.00;99021.06;5064883;28;20043;-77
2022/12/20 03:44:17;;;;;;;0.00;0.00;;;;;;;11.18;100.00;99051.03;5049105;28;20050;-77
2022/12/20 03:46:43;;;;;;;0.00;0.00;;;;;;;11.19;100.00;99025.31;5055437;28;20391;-77
2022/12/20 03:49:13;;;;;;;0.00;0.00;;;;;;;11.25;100.00;99024.09;5061404;28;20024;-78
2022/12/20 03:51:38;;;;;;;0.00;0.00;;;;;;;11.27;100.00;99024.59;5064953;28;20025;-78
2022/12/20 03:54:04;;;;;;;0.00;0.00;;;;;;;11.31;100.00;99043.94;5069279;28;20024;-78
2022/12/20 03:56:29;;;;;;;0.00;0.00;;;;;;;11.33;100.00;99064.44;5062736;28;20031;-77
2022/12/20 03:59:05;;;;;;;0.00;0.00;;;;;;;11.33;100.00;99058.97;5066739;28;20363;-78
2022/12/20 04:01:37;;;;;;;0.00;0.00;;;;;;;11.38;100.00;99081.88;5071840;28;20035;-77
2022/12/20 04:04:04;;;;;;;0.00;0.00;;;;;;;11.33;100.00;99053.50;5070712;28;20046;-78
2022/12/20 04:06:32;;;;;;;0.00;0.00;;;;;;;11.35;100.00;99044.97;5062709;28;20463;-80
2022/12/20 04:08:57;;;;;;;0.00;0.00;;;;;;;11.37;100.00;99075.56;5071068;28;20024;-79
2022/12/20 04:11:23;;;;;;;0.00;0.00;;;;;;;11.35;100.00;99105.19;5049212;28;20492;-77
2022/12/20 04:14:01;;;;;;;;;;;;;;;;;;;;;
2022/12/20 04:16:31;;;;;;;0.00;0.00;;;;;;;11.02;100.00;99126.31;5079483;28;20024;-78
2022/12/20 04:18:57;;;;;;;0.00;0.00;;;;;;;10.46;100.00;99148.78;5064294;28;20089;-77
2022/12/20 04:21:25;;;;;;;0.00;0.00;;;;;;;10.11;100.00;99150.09;5065313;28;20016;-77
2022/12/20 04:23:51;;;;;;;0.00;0.00;;;;;;;9.83;100.00;99160.84;5064471;28;20016;-77
2022/12/20 04:26:17;;;;;;;0.00;0.00;;;;;;;9.60;100.00;99152.34;5054465;28;20070;-77
2022/12/20 04:28:42;;;;;;;0.00;0.00;;;;;;;9.41;100.00;99156.94;5045780;28;20071;-78
2022/12/20 04:31:11;;;;;;;0.00;0.00;;;;;;;9.25;100.00;99168.00;5056165;28;20356;-81
2022/12/20 04:33:36;;;;;;;0.00;0.00;;;;;;;9.16;100.00;99180.66;5059975;28;20016;-77
2022/12/20 04:36:05;;;;;;;0.00;0.00;;;;;;;9.02;100.00;99166.88;5066806;28;20206;-76
2022/12/20 04:38:30;;;;;;;0.00;0.00;;;;;;;8.98;100.00;99176.72;5086372;28;20493;-76
2022/12/20 04:40:58;;;;;;;0.00;0.00;;;;;;;8.91;100.00;99185.22;5059642;28;20127;-77
2022/12/20 04:43:24;;;;;;;0.00;0.00;;;;;;;8.91;100.00;99185.22;5054338;28;20393;-77
2022/12/20 04:45:51;;;;;;;0.00;0.00;;;;;;;8.81;100.00;99179.84;5065516;28;20107;-76
2022/12/20 04:48:18;;;;;;;0.00;0.00;;;;;;;8.77;100.00;99189.69;5071856;28;20054;-76
2022/12/20 04:50:47;;;;;;;0.00;0.00;;;;;;;8.75;100.00;99186.44;5061778;28;20034;-76
2022/12/20 04:56:09;;;;;;;0.00;0.00;;;;;;;8.65;100.00;99208.31;5080728;28;20120;-76
2022/12/20 04:58:34;;;;;;;0.00;0.00;;;;;;;8.67;100.00;99211.56;5067366;28;20071;-77
2022/12/20 05:01:00;;;;;;;0.03;0.03;;;;;;;8.72;100.00;99211.56;5037619;28;20066;-77
2022/12/20 05:03:27;;;;;;;0.00;0.00;;;;;;;8.73;100.00;99194.06;5043536;28;21234;-76
2022/12/20 05:05:53;;;;;;;0.00;0.00;;;;;;;8.76;100.00;99199.00;5077793;28;20530;-77
2022/12/20 05:08:19;;;;;;;0.00;0.00;;;;;;;8.71;100.00;99202.53;5055906;28;20115;-76
2022/12/20 05:10:47;;;;;;;0.00;0.00;;;;;;;8.60;100.00;99201.00;5045822;28;20060;-76
2022/12/20 05:13:13;;;;;;;0.00;0.00;;;;;;;8.54;100.00;99224.75;5058620;28;20363;-75
2022/12/20 05:16:17;;;;;;;0.00;0.00;;;;;;;8.29;100.00;99220.19;5069640;28;20077;-77
2022/12/20 05:18:42;;;;;;;0.00;0.00;;;;;;;8.16;100.00;99237.16;5043830;28;20379;-76
2022/12/20 05:26:41;;;;;;;0.08;0.08;;;;;;;7.77;100.00;99249.53;5075869;28;20413;-76
2022/12/20 05:29:06;;;;;;;0.00;0.00;;;;;;;7.72;100.00;99249.53;5062994;28;20024;-76
2022/12/20 05:31:34;;;;;;;0.10;0.10;;;;;;;7.62;100.00;99249.56;5062925;28;20025;-76
2022/12/20 05:34:00;;;;;;;0.00;0.00;;;;;;;7.57;100.00;99255.03;5033376;28;20029;-77
2022/12/20 05:36:25;;;;;;;0.00;0.00;;;;;;;7.50;100.00;99253.41;5039303;28;20556;-76
2022/12/20 05:38:53;;;;;;;0.00;0.00;;;;;;;7.45;100.00;99256.13;5058913;28;22481;-76
2022/12/20 05:41:21;;;;;;;0.00;0.00;;;;;;;7.37;100.00;99261.31;5070438;28;20085;-76
2022/12/20 05:43:46;;;;;;;0.00;0.00;;;;;;;7.34;100.00;99278.97;5046613;28;20152;-76
2022/12/20 05:46:12;;;;;;;0.00;0.00;;;;;;;7.26;100.00;99274.09;5052331;28;20126;-76
2022/12/20 05:48:40;;;;;;;0.00;0.00;;;;;;;7.22;100.00;99284.69;5053073;28;20471;-76
2022/12/20 05:51:08;;;;;;;0.03;0.03;;;;;;;7.18;100.00;99290.94;5058559;28;20039;-76
2022/12/20 05:53:36;;;;;;;0.05;0.05;;;;;;;7.08;100.00;99297.19;5076644;28;20506;-77
2022/12/20 05:56:04;;;;;;;0.00;0.00;;;;;;;6.97;100.00;99301.81;5039225;28;20073;-76
2022/12/20 05:58:32;;;;;;;0.00;0.00;;;;;;;6.97;100.00;99307.25;5072748;28;20031;-76
2022/12/20 06:01:03;;;;;;;0.00;0.00;;;;;;;7.00;100.00;99323.00;5049046;28;20059;-75
2022/12/20 06:03:34;;;;;;;0.00;0.00;;;;;;;6.95;100.00;99309.41;5083547;28;20042;-77
2022/12/20 06:05:59;;;;;;;0.00;0.00;;;;;;;6.86;100.00;99319.16;5065083;28;20029;-76
2022/12/20 06:08:28;;;;;;;0.00;0.00;;;;;;;6.87;100.00;99328.97;5047132;28;20090;-76
2022/12/20 06:10:53;;;;;;;0.00;0.00;;;;;;;6.94;100.00;99362.94;5064093;28;20109;-77
2022/12/20 06:13:19;;;;;;;0.00;0.00;;;;;;;6.97;100.00;99345.28;5060745;28;20016;-78
2022/12/20 06:15:45;;;;;;;0.00;0.00;;;;;;;7.05;100.00;99362.97;5050356;28;20068;-76
2022/12/20 06:18:11;;;;;;;0.00;0.00;;;;;;;6.98;100.00;99365.97;5085774;28;20024;-77
2022/12/20 06:20:37;;;;;;;0.00;0.00;;;;;;;7.02;100.00;99386.06;5061576;28;20063;-76
2022/12/20 06:23:03;;;;;;;0.00;0.00;;;;;;;6.94;100.00;99383.88;5049373;28;20032;-76
2022/12/20 06:25:29;;;;;;;0.00;0.00;;;;;;;6.83;100.00;99377.59;5065479;28;20021;-77
2022/12/20 06:27:54;;;;;;;0.00;0.00;;;;;;;6.80;100.00;99370.81;5065412;28;20094;-76
2022/12/20 06:30:20;;;;;;;0.10;0.10;;;;;;;6.80;100.00;99375.41;5073559;28;20027;-76
2022/12/20 06:32:46;;;;;;;0.00;0.00;;;;;;;6.67;100.00;99378.63;5037923;28;20036;-78
2022/12/20 06:35:11;;;;;;;0.00;0.00;;;;;;;6.71;100.00;99390.59;5079239;28;20548;-77
2022/12/20 06:37:39;;;;;;;0.00;0.00;;;;;;;6.52;100.00;99382.91;5068574;28;20097;-78
2022/12/20 06:40:06;;;;;;;0.00;0.00;;;;;;;6.49;100.00;99388.06;5053927;28;20031;-77
2022/12/20 06:42:31;;;;;;;0.00;0.00;;;;;;;6.49;100.00;99404.34;5056119;28;20012;-76
2022/12/20 06:44:56;;;;;;;0.00;0.00;;;;;;;6.55;100.00;99403.28;5069346;28;20382;-77
2022/12/20 06:47:24;;;;;;;0.00;0.00;;;;;;;6.49;100.00;99404.34;5068855;28;20026;-76
2022/12/20 06:49:52;;;;;;;0.00;0.00;;;;;;;6.41;100.00;99414.63;5049983;28;20038;-75
2022/12/20 06:52:17;;;;;;;0.00;0.00;;;;;;;6.53;100.00;99419.84;5061440;28;20626;-76
2022/12/20 06:54:43;;;;;;;0.00;0.00;;;;;;;6.63;100.00;99410.94;5057397;28;20112;-77
2022/12/20 06:57:16;;;;;;;0.00;0.00;;;;;;;6.75;100.00;99429.75;5060773;28;20079;-77
2022/12/20 06:59:49;;;;;;;0.00;0.00;;;;;;;6.71;100.00;99426.72;5050089;28;20073;-76
2022/12/20 07:02:14;;;;;;;0.00;0.00;;;;;;;6.74;100.00;99439.78;5067514;28;20131;-77
2022/12/20 07:04:40;;;;;;;0.00;0.00;;;;;;;6.67;100.00;99439.19;5035503;28;20024;-75
2022/12/20 07:07:05;;;;;;;0.00;0.00;;;;;;;6.63;100.00;99448.97;5062614;28;20032;-75
2022/12/20 07:09:41;;;;;;;;;;;;;;;;;;;;;
2022/12/20 07:12:16;;;;;;;0.03;0.03;;;;;;;6.39;100.00;99470.28;5062985;28;20027;-77
2022/12/20 07:14:42;;;;;;;0.05;0.05;;;;;;;6.21;100.00;99445.19;5056076;28;20108;-77
2022/12/20 07:17:07;;;;;;;0.00;0.00;;;;;;;6.19;100.00;99455.50;5037530;28;20055;-77
2022/12/20 07:19:44;;;;;;;;;;;;;;;;;;;;;
2022/12/20 07:22:12;;;;;;;0.00;0.00;;;;;;;6.14;100.00;99489.94;5080726;28;20024;-77
2022/12/20 07:24:38;;;;;;;0.03;0.03;;;;;;;6.07;100.00;99479.28;5075135;28;20028;-77
2022/12/20 07:27:04;;;;;;;0.00;0.00;;;;;;;6.03;100.00;99468.13;5070649;28;20028;-76
2022/12/20 07:29:29;;;;;;;0.00;0.00;;;;;;;5.98;100.00;99480.84;5043172;28;20039;-76
2022/12/20 07:32:00;;;;;;;0.00;0.00;;;;;;;5.92;100.00;99463.66;5034101;28;20063;-78
2022/12/20 07:34:26;;;;;;;0.00;0.00;;;;;;;5.87;100.00;99464.44;5067678;28;20131;-77
2022/12/20 07:36:54;;;;;;;0.00;0.00;;;;;;;5.85;100.00;99472.00;5071795;28;20718;-77
2022/12/20 07:39:29;;;;;;;0.00;0.00;;;;;;;5.85;100.00;99482.06;5045289;28;20839;-77
2022/12/20 07:41:55;;;;;;;0.10;0.10;;;;;;;5.81;100.00;99475.50;5046582;28;20040;-76
2022/12/20 07:44:21;;;;;;;0.00;0.00;;;;;;;5.68;100.00;99466.72;5066508;28;20528;-76
2022/12/20 07:46:46;;;;;;;0.00;0.00;;;;;;;5.70;100.00;99474.59;5053190;28;20028;-77
2022/12/20 07:49:12;;;;;;;0.00;0.00;;;;;;;5.64;100.00;99498.16;5048522;28;20043;-76
2022/12/20 07:51:42;;;;;;;0.00;0.00;;;;;;;5.66;100.00;99523.09;5068199;28;20107;-79
2022/12/20 07:54:23;;;;;;;0.00;0.00;;;;;;;5.64;100.00;99524.47;5061603;28;20055;-76
2022/12/20 07:56:56;;;;;;;0.00;0.00;;;;;;;5.67;100.00;99551.06;5083274;28;20075;-78
2022/12/20 07:59:46;;;;;;;0.00;0.00;;;;;;;5.55;100.00;99537.66;5075448;28;20023;-75
2022/12/20 08:02:20;;;;;;;0.00;0.00;;;;;;;5.55;100.00;99543.06;5058506;28;20470;-78
2022/12/20 08:04:48;;;;;;;0.00;0.00;;;;;;;5.50;100.00;99551.94;5063206;28;20724;-78
2022/12/20 08:07:14;;;;;;;0.00;0.00;;;;;;;5.54;100.00;99555.78;5041360;28;20032;-78
2022/12/20 08:09:42;;;;;;;0.00;0.00;;;;;;;5.47;100.00;99543.53;5052332;28;20480;-76
2022/12/20 08:12:11;;;;;;;0.10;0.10;;;;;;;5.49;100.00;99554.91;5045750;28;20033;-76
2022/12/20 08:14:37;;;;;;;0.00;0.00;;;;;;;5.38;100.00;99543.94;5061082;28;20048;-76
2022/12/20 08:17:04;;;;;;;0.00;0.00;;;;;;;5.33;100.00;99551.19;5061002;28;20059;-76
2022/12/20 08:19:30;;;;;;;0.00;0.00;;;;;;;5.27;100.00;99553.06;5048916;28;20473;-77
2022/12/20 08:21:58;;;;;;;0.00;0.00;;;;;;;5.20;100.00;99545.09;5055372;28;20032;-76
2022/12/20 08:24:25;;;;;;;0.00;0.00;;;;;;;5.17;100.00;99550.19;5051351;28;20040;-76
2022/12/20 08:26:51;;;;;;;0.03;0.03;;;;;;;5.15;100.00;99555.06;5075005;28;20084;-76
2022/12/20 08:29:16;;;;;;;0.00;0.00;;;;;;;5.20;100.00;99563.28;5081804;28;20505;-76
2022/12/20 08:31:44;;;;;;;0.00;0.00;;;;;;;5.19;100.00;99572.47;5060396;28;20111;-76
2022/12/20 08:34:12;;;;;;;0.00;0.00;;;;;;;5.21;100.00;99581.16;5066707;28;20355;-77
2022/12/20 08:36:38;;;;;;;0.00;0.00;;;;;;;5.19;100.00;99588.72;5051468;28;20139;-74
2022/12/20 08:39:07;;;;;;;0.10;0.10;;;;;;;5.21;100.00;99584.69;5051238;28;20119;-77
2022/12/20 08:42:07;;;;;;;0.00;0.00;;;;;;;5.20;100.00;99588.47;5043613;28;20021;-76
2022/12/20 08:44:40;;;;;;;0.00;0.00;;;;;;;5.19;100.00;99583.31;5058709;28;20115;-76
2022/12/20 08:47:14;;;;;;;0.00;0.00;;;;;;;5.10;100.00;99563.13;5063843;28;20024;-76
2022/12/20 08:50:07;;;;;;;0.00;0.00;;;;;;;5.17;100.00;99580.00;5056509;28;20119;-76
2022/12/20 08:52:32;;;;;;;0.00;0.00;;;;;;;5.27;100.00;99590.16;5048087;28;20082;-77
2022/12/20 08:55:23;;;;;;;0.00;0.00;;;;;;;5.26;100.00;99594.78;5064265;28;20060;-77
2022/12/20 09:01:14;;;;;;;0.00;0.00;;;;;;;5.48;100.00;99593.97;5052052;28;20042;-75
2022/12/20 09:03:40;;;;;;;0.00;0.00;;;;;;;5.55;100.00;99597.31;5070969;28;20047;-77
2022/12/20 09:06:21;;;;;;;;;;;;;;;;;;;;;
2022/12/20 09:09:05;;;;;;;;;;;;;;;;;;;;;
2022/12/20 09:11:36;;;;;;;;;;;;;;;5.84;100.00;99611.47;5060928;28;20479;-75
2022/12/20 09:14:56;;;;;;;;;;;;;;;;;;;;;
2022/12/20 09:17:22;;;;;;;0.00;0.00;;;;;;;6.01;100.00;99605.97;5062637;28;20043;-77
2022/12/20 09:19:59;;;;;;;0.00;0.00;;;;;;;6.12;100.00;99612.34;5080816;28;20458;-76
2022/12/20 09:22:34;;;;;;;0.00;0.00;;;;;;;6.07;100.00;99591.38;5067642;28;20058;-76
2022/12/20 09:25:38;;;;;;;0.00;0.00;;;;;;;6.18;100.00;99599.66;5043694;28;21127;-77
2022/12/20 09:28:23;;;;;;;;;;;;;;;;;;;;;
2022/12/20 09:30:49;;;;;;;0.00;0.00;;;;;;;6.45;100.00;99616.72;5061833;28;20024;-76
2022/12/20 09:33:33;;;;;;;0.00;0.00;;;;;;;6.53;100.00;99611.91;5057502;28;20039;-76
2022/12/20 09:36:09;;;;;;;0.00;0.00;;;;;;;6.71;100.00;99618.81;5055799;28;20021;-77
2022/12/20 09:38:54;;;;;;;0.00;0.00;;;;;;;6.91;100.00;99629.03;5076346;28;20458;-75
2022/12/20 09:41:31;;;;;;;0.10;0.10;;;;;;;7.91;100.00;99643.69;5056513;28;20078;-76
2022/12/20 09:44:13;;;;;;;0.00;0.00;;;;;;;10.18;100.00;99645.03;5058871;28;20024;-76
2022/12/20 09:46:40;;;;;;;0.00;0.00;;;;;;;12.19;100.00;99651.31;5057995;28;20086;-77
2022/12/20 09:49:45;;;;;;;0.00;0.00;;;;;;;13.61;100.00;99634.69;5029989;28;20040;-76
2022/12/20 09:52:39;;;;;;;;;;;;;;;;;;;;;
2022/12/20 09:58:44;;;;;;;0.00;0.00;;;;;;;16.11;100.00;99638.94;5067425;28;20108;-75
2022/12/20 10:01:30;;;;;;;0.00;0.00;;;;;;;16.83;100.00;99641.38;5062701;28;20465;-76
2022/12/20 10:03:58;;;;;;;0.00;0.00;;;;;;;17.60;100.00;99642.31;5052296;28;20024;-76
2022/12/20 10:06:50;;;;;;;0.00;0.00;;;;;;;18.09;100.00;99646.59;5061380;28;20055;-76
2022/12/20 10:09:29;;;;;;;;;;;;;;;;;;;;;
2022/12/20 10:12:44;;;;;;;;;;;;;;;;;;;;;
2022/12/20 10:16:20;;;;;;;0.00;0.00;;;;;;;20.69;100.00;99658.97;5073150;28;20094;-76
2022/12/20 10:19:35;;;;;;;;;;;;;;;;;;;;;
2022/12/20 10:22:38;;;;;;;;;;;;;;;;;;;;;
2022/12/20 10:25:46;;;;;;;;;;;;;;;;;;;;;
2022/12/20 10:29:05;;;;;;;;;;;;;;;;;;;;;
2022/12/20 10:34:30;;;;;;;0.00;0.00;;;;;;;23.52;96.79;99652.78;5062650;28;20532;-75
2022/12/20 10:37:58;;;;;;;;;;;;;;;;;;;;;
2022/12/20 10:41:52;;;;;;;;;;;;;;;;;;;;;
2022/12/20 10:45:00;;;;;;;;;;;;;;;;;;;;;
2022/12/20 10:54:58;;;;;;;;;;;;;;;;;;;;;
2022/12/20 10:58:20;;;;;;;;;;;;;;;;;;;;;
2022/12/20 11:01:41;;;;;;;;;;;;;;;;;;;;;
2022/12/20 11:05:00;;;;;;;0.00;0.00;;;;;;;28.19;81.23;99648.31;5003714;28;20038;-76
2022/12/20 11:08:02;;;;;;;;;;;;;;;;;;;;;
2022/12/20 11:10:57;;;;;;;0.00;0.00;;;;;;;28.19;79.40;99658.75;5077954;28;20392;-76
2022/12/20 11:13:39;;;;;;;;;;;;;;;;;;;;;
2022/12/20 11:16:56;;;;;;;;;;;;;;;;;;;;;
2022/12/20 11:19:52;;;;;;;0.00;0.00;;;;;;;29.30;80.02;99663.13;5071001;28;20023;-76
2022/12/20 11:22:44;;;;;;;0.00;0.00;;;;;;;29.69;78.33;99664.84;5066451;28;20600;-76
2022/12/20 11:25:36;;;;;;;0.00;0.00;;;;;;;30.17;78.85;99660.41;5065366;28;20040;-76
2022/12/20 11:28:33;;;;;;;0.00;0.00;;;;;;;30.97;76.19;99657.44;5054067;28;20066;-75
2022/12/20 11:31:27;;;;;;;0.00;0.00;;;;;;;31.32;76.11;99656.16;5059803;28;20086;-76
2022/12/20 11:34:49;;;;;;;;;;;;;;;;;;;;;
2022/12/20 11:37:23;;;;;;;0.00;0.00;;;;;;;31.69;74.47;99645.09;5050553;28;20048;-75
2022/12/20 11:40:28;;;;;;;;;;;;;;;32.24;72.91;99640.06;5043096;28;20016;-77
2022/12/20 11:43:23;;;;;;;0.00;0.00;;;;;;;32.49;72.19;99628.25;5058936;28;19908;-76
2022/12/20 11:46:06;;;;;;;0.00;0.00;;;;;;;32.30;68.66;99626.22;5043806;28;20013;-75
2022/12/20 11:48:50;;;;;;;0.00;0.00;;;;;;;32.49;73.47;99621.78;5044715;28;20045;-76
2022/12/20 11:51:26;;;;;;;0.00;0.00;;;;;;;31.82;72.31;99626.28;5030370;28;20119;-75
2022/12/20 11:54:48;;;;;;;0.00;0.00;;;;;;;31.55;71.19;99611.41;5026110;28;20029;-75
2022/12/20 11:58:07;;;;;;;0.00;0.00;;;;;;;30.69;75.59;99613.47;5001890;28;20033;-75
2022/12/20 12:01:13;;;;;;;;;;;;;;;;;;;;;
2022/12/20 12:04:42;;;;;;;;;;;;;;;;;;;;;
2022/12/20 12:07:20;;;;;;;;;;;;;;;;;;;;;
2022/12/20 12:10:36;;;;;;;0.00;0.00;;;;;;;29.94;71.02;99615.94;5025077;28;20033;-76
2022/12/20 12:13:34;;;;;;;0.00;0.00;;;;;;;28.87;73.47;99621.19;5003898;28;20026;-76
2022/12/20 12:26:28;;;;;;;0.00;0.00;;;;;;;29.39;73.39;99615.59;4902258;29;20126;-75
2022/12/20 12:32:30;;;;;;;0.00;0.00;;;;;;;28.86;75.14;99602.69;4961003;28;20046;-77
2022/12/20 12:39:08;;;;;;;0.00;0.00;;;;;;;28.52;79.62;99625.75;4966872;28;20054;-77
2022/12/20 12:41:51;;;;;;;;;;;;;;;28.82;70.07;99619.56;4967927;28;20045;-77
2022/12/20 12:44:33;;;;;;;0.00;0.00;;;;;;;28.85;70.54;99613.13;4986723;28;20434;-77
2022/12/20 12:47:49;;;;;;;;;;;;;;;;;;;;;
2022/12/20 12:50:44;;;;;;;0.00;0.00;;;;;;;28.54;79.27;99614.88;4980439;28;20068;-78
2022/12/20 12:53:31;;;;;;;;;;;;;;;;;;;;;
2022/12/20 13:00:10;;;;;;;0.00;0.00;;;;;;;30.17;75.63;99623.75;5021738;28;20029;-78
2022/12/20 13:03:21;;;;;;;;;;;;;;;;;;;;;
2022/12/20 13:06:35;;;;;;;;;;;;;;;;;;;;;
2022/12/20 13:09:13;;;;;;;;;;;;;;;;;;;;;
2022/12/20 13:12:26;;;;;;;;;;;;;;;;;;;;;
2022/12/20 13:15:53;;;;;;;0.00;0.00;;;;;;;24.39;87.10;99626.16;4957597;28;20055;-76
2022/12/20 13:18:35;;;;;;;;;;;;;;;;;;;;;
2022/12/20 13:24:52;;;;;;;0.00;0.00;;;;;;;22.91;92.32;99622.94;5028408;28;20078;-77
2022/12/20 13:28:15;;;;;;;;;;;;;;;;;;;;;
2022/12/20 13:33:53;;;;;;;0.00;0.00;;;;;;;25.51;74.60;99628.19;4953083;28;20034;-79
2022/12/20 13:43:56;;;;;;;0.00;0.00;;;;;;;25.73;73.44;99611.56;5030663;28;20438;-77
2022/12/20 13:46:41;;;;;;;;;;;;;;;;;;;;;
2022/12/20 13:49:41;;;;;;;;;;;;;;;;;;;;;
2022/12/20 13:52:13;;;;;;;0.00;0.00;;;;;;;22.09;75.24;99601.38;4978314;28;20038;-77
2022/12/20 13:54:56;;;;;;;0.00;0.00;;;;;;;19.93;81.87;99573.47;5027524;28;20025;-77
2022/12/20 13:57:53;;;;;;;0.00;0.00;;;;;;;18.28;83.62;99585.28;5021405;28;20048;-79
2022/12/20 14:00:53;;;;;;;;;;;;;;;;;;;;;
2022/12/20 14:04:04;;;;;;;0.00;0.00;;;;;;;17.99;85.30;99597.22;5041778;28;20016;-77
2022/12/20 14:28:16;;;;;;;0.00;0.00;;;;;;;21.83;83.33;99576.13;4898006;29;20048;-82
2022/12/20 14:31:47;;;;;;;0.00;0.00;;;;;;;22.20;82.97;99568.19;4880482;29;20131;-81
2022/12/20 14:38:28;;;;;;;0.00;0.00;;;;;;;22.14;83.19;99584.38;4874187;29;20141;-81
2022/12/20 14:45:06;;;;;;;0.00;0.00;;;;;;;21.56;88.16;99593.38;4906451;29;20123;-81
2022/12/20 14:55:05;;;;;;;;;;;;;;;;;;;;;